Knife Falls, Minnesota
Current Conditions -  °F | °C
As of 10:37 PM on Wednesday 26 Nov 2014 (Local Time) from KCOQ Reporting Station
Clear Clear  
Wind Chill: -16°   Ceiling: Unl
Heat Index:   Visibility: 10mi
Dew Point: -6°   Wind: 13mph
Humidity: 72%   Direction: 320°NW
Pressure: 30.35"   Gusts: 16mph
Location:  46.7232°N, 92.5588°W
Report Text: KCOQ 270437Z AUTO 32011G14KT 10SM CLR M17/M21 A3035 RMK AO2
Loading
Personal Weather Stations






























Interactive Weather Map New forecast layout! Learn more

10-Day Weather Forecast

Advertisements
Track Severe Weather on mobile